Time;durP1;ratioP1;P1;durP2;ratioP2;P2;SDS_P1;SDS_P2;PMS_P1;PMS_P2;Temp;Humidity;BMP_temperature;BMP_pressure;BME280_temperature;BME280_humidity;BME280_pressure;Samples;Min_cycle;Max_cycle;Signal;HPM_P1;HPM_P2
2021/06/17 00:11:18;;;;;;;7.87;3.58;;;;;;;19.71;67.44;99561.09;1585197;89;21131;-72
2021/06/17 00:13:51;;;;;;;9.90;3.15;;;;;;;19.72;67.33;99563.30;1639783;87;21699;-78
2021/06/17 00:16:18;;;;;;;7.25;3.67;;;;;;;19.70;67.26;99565.08;1660066;85;21573;-74
2021/06/17 00:18:45;;;;;;;10.05;3.67;;;;;;;19.69;67.33;99567.06;1663542;85;21087;-74
2021/06/17 00:21:16;;;;;;;7.58;3.33;;;;;;;19.70;67.13;99565.86;1663830;85;21101;-73
2021/06/17 00:23:46;;;;;;;6.58;3.12;;;;;;;19.67;66.96;99567.25;1660800;85;21088;-75
2021/06/17 00:26:15;;;;;;;3.72;3.30;;;;;;;19.66;66.84;99562.83;1665126;85;21083;-74
2021/06/17 00:28:49;;;;;;;6.00;3.65;;;;;;;19.63;66.75;99554.62;1664742;85;21172;-72
2021/06/17 00:31:18;;;;;;;37.80;4.67;;;;;;;19.61;66.80;99558.98;1691829;82;21354;-72
2021/06/17 00:33:46;;;;;;;14.60;4.50;;;;;;;19.56;66.63;99560.94;1730067;82;21053;-73
2021/06/17 00:36:14;;;;;;;5.92;3.30;;;;;;;19.53;66.78;99551.89;1731761;82;21061;-72
2021/06/17 00:38:47;;;;;;;9.75;3.25;;;;;;;19.50;66.79;99551.87;1726483;81;21032;-72
2021/06/17 00:41:14;;;;;;;8.93;4.00;;;;;;;19.50;66.91;99547.69;1729091;82;21119;-72
2021/06/17 00:43:40;;;;;;;5.35;3.42;;;;;;;19.51;67.03;99547.89;1731163;82;21474;-72
2021/06/17 00:46:07;;;;;;;6.40;4.15;;;;;;;19.50;66.96;99556.06;1731047;82;21052;-72
2021/06/17 00:48:37;;;;;;;7.83;3.50;;;;;;;19.51;67.02;99566.05;1723021;82;21501;-72
2021/06/17 00:51:08;;;;;;;9.20;4.45;;;;;;;19.52;66.94;99571.84;1703283;82;21018;-74
2021/06/17 00:53:37;;;;;;;7.15;3.60;;;;;;;19.53;66.89;99579.05;1731643;82;22022;-73
2021/06/17 00:56:04;;;;;;;9.18;3.77;;;;;;;19.50;66.71;99575.02;1729417;82;21032;-72
2021/06/17 00:58:30;;;;;;;8.40;3.87;;;;;;;19.48;66.87;99573.80;1728038;82;21489;-72
2021/06/17 01:00:57;;;;;;;7.53;3.45;;;;;;;19.42;66.82;99569.94;1728920;82;21154;-72
2021/06/17 01:03:23;;;;;;;10.98;4.35;;;;;;;19.38;66.87;99569.08;1730719;82;21600;-73
2021/06/17 01:05:50;;;;;;;8.63;3.60;;;;;;;19.33;67.09;99564.64;1730848;82;21512;-78
2021/06/17 01:08:59;;;;;;;5.62;3.40;;;;;;;19.32;67.02;99566.41;1730767;82;20918;-73
2021/06/17 01:14:50;;;;;;;8.93;3.12;;;;;;;19.33;67.19;99573.02;1722038;82;21073;-74
2021/06/17 01:24:55;;;;;;;5.42;3.80;;;;;;;19.21;67.26;99578.24;1608479;87;21130;-72
2021/06/17 01:28:36;;;;;;;6.53;3.47;;;;;;;19.22;67.17;99573.47;1588051;89;21641;-76
2021/06/17 01:31:15;;;;;;;6.72;3.55;;;;;;;19.21;67.34;99579.64;1609669;85;21048;-77
2021/06/17 01:33:44;;;;;;;;;;;;;;;19.18;67.28;99576.21;1643876;85;21075;-72
2021/06/17 01:36:17;;;;;;;8.68;3.75;;;;;;;19.16;67.43;99573.56;1692758;83;21773;-74
2021/06/17 01:38:49;;;;;;;8.80;3.47;;;;;;;19.17;67.59;99573.80;1705060;81;21083;-73
2021/06/17 01:41:16;;;;;;;14.60;4.00;;;;;;;19.17;67.41;99592.77;1732510;81;21072;-77
2021/06/17 01:43:43;;;;;;;10.70;3.95;;;;;;;19.15;67.49;99595.13;1729425;82;21036;-74
2021/06/17 01:46:12;;;;;;;8.70;3.95;;;;;;;19.16;67.61;99597.30;1729826;82;21049;-72
2021/06/17 01:48:39;;;;;;;7.95;3.60;;;;;;;19.16;67.43;99595.33;1731377;82;21185;-73
2021/06/17 01:51:06;;;;;;;8.60;3.55;;;;;;;19.10;67.15;99599.60;1730358;82;21083;-72
2021/06/17 01:53:35;;;;;;;6.40;3.27;;;;;;;19.02;67.48;99604.87;1728982;82;21076;-76
2021/06/17 01:56:02;;;;;;;11.65;3.83;;;;;;;18.96;67.75;99612.17;1697552;82;21065;-74
2021/06/17 01:58:28;;;;;;;6.47;3.15;;;;;;;18.95;68.04;99612.55;1718936;82;21509;-74
2021/06/17 02:01:03;;;;;;;5.47;3.83;;;;;;;18.96;68.10;99600.19;1717671;82;21054;-72
2021/06/17 02:03:33;;;;;;;12.60;4.22;;;;;;;18.98;67.98;99593.06;1718221;82;21543;-74
2021/06/17 02:06:02;;;;;;;11.55;3.90;;;;;;;18.94;68.07;99593.59;1717001;82;21481;-75
2021/06/17 02:08:29;;;;;;;6.97;3.40;;;;;;;18.93;68.32;99605.13;1721142;81;21104;-73
2021/06/17 02:10:56;;;;;;;5.65;3.47;;;;;;;18.94;68.35;99616.50;1719785;81;21578;-73
2021/06/17 02:13:24;;;;;;;6.53;3.67;;;;;;;18.97;68.29;99622.72;1721640;82;21134;-73
2021/06/17 02:15:52;;;;;;;7.80;3.50;;;;;;;18.96;68.29;99623.34;1703762;82;20993;-73
2021/06/17 02:18:25;;;;;;;6.12;4.10;;;;;;;18.97;68.26;99622.72;1727354;82;21009;-77
2021/06/17 02:20:55;;;;;;;7.37;3.87;;;;;;;18.96;68.41;99624.73;1725941;82;21107;-74
2021/06/17 02:23:22;;;;;;;10.38;3.95;;;;;;;18.97;68.32;99625.52;1731306;82;21038;-74
2021/06/17 02:25:52;;;;;;;7.42;3.67;;;;;;;18.98;68.43;99627.95;1725504;82;21150;-73
2021/06/17 02:28:22;;;;;;;10.40;3.42;;;;;;;18.99;68.45;99630.14;1730916;82;21065;-73
2021/06/17 02:30:48;;;;;;;14.33;4.50;;;;;;;19.00;68.56;99627.58;1731984;81;21012;-73
2021/06/17 02:33:17;;;;;;;8.33;4.50;;;;;;;19.04;68.50;99623.45;1733551;82;21048;-72
2021/06/17 02:35:45;;;;;;;9.95;4.47;;;;;;;19.05;68.46;99622.26;1709765;83;21590;-74
2021/06/17 02:38:14;;;;;;;10.15;4.60;;;;;;;19.05;68.48;99623.08;1730739;82;21285;-73
2021/06/17 02:40:44;;;;;;;11.45;3.65;;;;;;;19.04;68.49;99622.84;1724324;82;21467;-73
2021/06/17 02:43:19;;;;;;;7.92;4.03;;;;;;;19.05;68.50;99620.28;1688578;83;21078;-73
2021/06/17 02:45:46;;;;;;;9.83;3.45;;;;;;;19.07;68.73;99617.11;1711719;83;20985;-74
2021/06/17 02:48:14;;;;;;;8.00;4.03;;;;;;;19.09;68.78;99620.31;1706251;83;21079;-71
2021/06/17 02:50:45;;;;;;;8.27;3.93;;;;;;;19.11;68.81;99619.37;1718908;82;21172;-73
2021/06/17 02:53:12;;;;;;;11.38;3.58;;;;;;;19.15;68.75;99620.83;1734729;81;21213;-70
2021/06/17 02:55:39;;;;;;;6.87;4.00;;;;;;;19.20;68.69;99623.30;1736100;82;20951;-72
2021/06/17 02:58:30;;;;;;;12.00;4.12;;;;;;;19.23;68.71;99625.95;1735383;82;20972;-73
2021/06/17 03:01:50;;;;;;;5.97;3.90;;;;;;;19.17;68.69;99624.88;1691306;84;21517;-74
2021/06/17 03:04:30;;;;;;;16.97;3.92;;;;;;;19.13;68.94;99618.42;1687278;84;21024;-75
2021/06/17 03:07:00;;;;;;;6.17;3.15;;;;;;;19.10;69.20;99623.34;1683829;83;21655;-73
2021/06/17 03:09:34;;;;;;;11.50;4.08;;;;;;;19.13;69.23;99625.40;1664449;84;21534;-71
2021/06/17 03:12:03;;;;;;;17.82;4.37;;;;;;;19.14;69.16;99628.39;1683104;83;21023;-71
2021/06/17 03:14:35;;;;;;;5.85;3.42;;;;;;;19.16;69.29;99635.81;1691876;83;21516;-71
2021/06/17 03:17:07;;;;;;;10.75;3.87;;;;;;;19.21;69.32;99639.68;1682518;83;21503;-71
2021/06/17 03:19:35;;;;;;;8.88;3.22;;;;;;;19.25;69.28;99641.13;1685646;83;21054;-71
2021/06/17 03:22:05;;;;;;;12.75;3.80;;;;;;;19.29;69.37;99650.96;1679366;85;21013;-71
2021/06/17 03:24:37;;;;;;;8.63;3.95;;;;;;;19.31;69.38;99648.61;1686521;83;21012;-72
2021/06/17 03:27:15;;;;;;;9.93;3.90;;;;;;;19.38;69.33;99659.08;1680615;83;21120;-72
2021/06/17 03:29:48;;;;;;;16.67;3.92;;;;;;;19.41;69.36;99655.52;1687430;82;21186;-75
2021/06/17 03:32:22;;;;;;;8.00;3.72;;;;;;;19.44;69.34;99659.77;1678775;83;21025;-74
2021/06/17 03:34:51;;;;;;;5.15;2.92;;;;;;;19.45;69.35;99653.56;1691269;83;20996;-71
2021/06/17 03:37:20;;;;;;;4.75;3.35;;;;;;;19.49;69.46;99659.20;1727679;80;21612;-75
2021/06/17 03:39:46;;;;;;;10.38;3.30;;;;;;;19.53;69.36;99659.46;1729034;82;21382;-71
2021/06/17 03:46:47;;;;;;;10.15;4.03;;;;;;;19.68;69.34;99668.87;1672714;83;20997;-72
2021/06/17 03:49:14;;;;;;;6.17;3.60;;;;;;;19.79;69.03;99673.80;1698376;83;21528;-76
2021/06/17 03:51:40;;;;;;;9.10;4.30;;;;;;;19.81;68.93;99675.02;1680534;83;21040;-73
2021/06/17 03:54:09;;;;;;;9.38;3.75;;;;;;;19.88;68.98;99674.88;1697074;82;21001;-74
2021/06/17 03:56:35;;;;;;;7.40;3.77;;;;;;;19.93;69.09;99671.16;1670988;85;21116;-73
2021/06/17 03:59:01;;;;;;;8.00;3.30;;;;;;;20.00;68.94;99681.63;1693800;83;21497;-73
2021/06/17 04:01:30;;;;;;;5.50;3.27;;;;;;;20.08;68.96;99685.33;1696557;83;21023;-72
2021/06/17 04:03:56;;;;;;;7.03;3.52;;;;;;;20.14;69.00;99685.22;1697025;83;21579;-73
2021/06/17 04:06:25;;;;;;;5.05;3.08;;;;;;;20.22;68.87;99691.69;1692455;83;21194;-74
2021/06/17 04:08:55;;;;;;;8.03;4.10;;;;;;;20.25;68.54;99687.34;1684437;85;21178;-73
2021/06/17 04:11:26;;;;;;;8.13;3.40;;;;;;;20.25;68.49;99692.32;1679133;85;21469;-74
2021/06/17 04:13:55;;;;;;;8.95;3.83;;;;;;;20.31;68.38;99690.00;1687754;83;21549;-74
2021/06/17 04:16:22;;;;;;;10.70;3.27;;;;;;;20.38;68.29;99699.06;1676991;84;20877;-72
2021/06/17 04:18:49;;;;;;;7.30;3.33;;;;;;;20.45;68.26;99686.55;1681278;84;21524;-73
2021/06/17 04:21:19;;;;;;;7.40;3.45;;;;;;;20.51;68.15;99691.19;1655872;84;21124;-75
2021/06/17 04:23:52;;;;;;;9.48;3.47;;;;;;;20.53;68.32;99691.61;1677206;84;20972;-73
2021/06/17 04:26:22;;;;;;;7.92;3.42;;;;;;;20.59;68.29;99688.67;1678778;84;21575;-73
2021/06/17 04:28:48;;;;;;;12.98;4.12;;;;;;;20.66;68.01;99682.33;1681074;84;21048;-72
2021/06/17 04:31:17;;;;;;;9.43;3.95;;;;;;;20.71;67.68;99679.80;1680271;84;21005;-72
2021/06/17 04:33:45;;;;;;;6.97;3.42;;;;;;;20.75;67.64;99679.22;1682363;84;22066;-75
2021/06/17 04:36:12;;;;;;;12.37;3.33;;;;;;;20.81;67.61;99679.09;1730581;81;21532;-73
2021/06/17 04:38:39;;;;;;;6.12;3.92;;;;;;;20.81;67.48;99680.48;1727409;82;21008;-73
2021/06/17 04:41:08;;;;;;;12.70;3.42;;;;;;;20.79;67.39;99679.48;1729581;82;21092;-72
2021/06/17 04:43:34;;;;;;;25.30;4.08;;;;;;;20.83;67.48;99682.91;1730212;82;21040;-74
2021/06/17 04:46:02;;;;;;;12.33;3.87;;;;;;;20.91;67.56;99688.15;1722998;82;21039;-73
2021/06/17 04:48:33;;;;;;;7.33;3.30;;;;;;;21.00;67.53;99694.86;1727443;82;21040;-72
2021/06/17 04:50:58;;;;;;;12.98;3.95;;;;;;;21.05;67.06;99695.12;1726716;82;21092;-73
2021/06/17 04:53:25;;;;;;;10.85;4.25;;;;;;;21.07;66.95;99698.31;1728020;82;21088;-75
2021/06/17 04:55:55;;;;;;;14.10;3.80;;;;;;;21.12;66.96;99692.35;1728514;81;21017;-74
2021/06/17 04:58:23;;;;;;;8.28;3.65;;;;;;;21.21;66.89;99709.41;1730526;82;21083;-73
2021/06/17 05:00:51;;;;;;;9.83;3.75;;;;;;;21.21;66.78;99707.42;1729011;82;21505;-74
2021/06/17 05:03:17;;;;;;;25.48;5.08;;;;;;;21.23;66.66;99708.44;1727548;82;21045;-78
2021/06/17 05:05:47;;;;;;;12.63;3.42;;;;;;;21.31;66.80;99707.91;1724237;82;21051;-74
2021/06/17 05:10:56;;;;;;;9.07;4.30;;;;;;;21.49;66.77;99713.63;1706626;81;21205;-74
2021/06/17 05:13:33;;;;;;;11.75;3.70;;;;;;;21.59;66.54;99717.68;1727109;82;21063;-74
2021/06/17 05:16:02;;;;;;;5.72;3.27;;;;;;;21.64;66.63;99727.13;1727353;82;21020;-78
2021/06/17 05:18:28;;;;;;;12.28;4.05;;;;;;;21.66;66.33;99733.15;1729605;81;21041;-73
2021/06/17 05:20:57;;;;;;;13.72;4.03;;;;;;;21.71;66.34;99734.77;1729959;82;21102;-73
2021/06/17 05:23:24;;;;;;;8.20;3.42;;;;;;;21.72;66.24;99737.77;1723612;82;22139;-73
2021/06/17 05:25:58;;;;;;;12.30;3.25;;;;;;;21.76;66.08;99741.41;1728022;82;21053;-78
2021/06/17 05:28:28;;;;;;;9.15;4.05;;;;;;;21.83;66.19;99737.88;1724564;82;21040;-74
2021/06/17 05:31:03;;;;;;;15.28;3.83;;;;;;;21.93;65.61;99750.33;1728483;82;21042;-72
2021/06/17 05:33:33;;;;;;;9.10;3.70;;;;;;;21.97;65.33;99751.17;1729132;82;21001;-72
2021/06/17 05:36:07;;;;;;;10.00;3.70;;;;;;;22.04;65.39;99745.57;1681743;84;21969;-73
2021/06/17 05:38:35;;;;;;;7.45;3.55;;;;;;;22.14;65.25;99746.84;1730236;81;21035;-75
2021/06/17 05:41:01;;;;;;;8.73;3.47;;;;;;;22.20;65.25;99745.84;1733206;82;20980;-72
2021/06/17 05:44:10;;;;;;;10.58;3.50;;;;;;;22.15;65.03;99750.43;1727133;81;20997;-77
2021/06/17 05:46:40;;;;;;;5.78;3.80;;;;;;;22.01;65.19;99755.59;1730737;82;21035;-74
2021/06/17 05:49:08;;;;;;;6.83;3.35;;;;;;;21.99;65.71;99757.20;1731821;82;21118;-75
2021/06/17 05:51:36;;;;;;;7.95;3.55;;;;;;;22.08;65.82;99757.63;1666403;84;21043;-78
2021/06/17 05:54:03;;;;;;;7.90;3.55;;;;;;;22.12;65.56;99757.06;1685519;83;21102;-79
2021/06/17 05:56:29;;;;;;;12.20;3.52;;;;;;;22.16;65.43;99754.23;1692703;84;21009;-71
2021/06/17 05:58:58;;;;;;;8.45;4.90;;;;;;;22.25;65.82;99756.69;1692859;84;21005;-72
2021/06/17 06:08:55;;;;;;;;;;;;;;;22.38;65.52;99764.95;1692807;84;21544;-73
2021/06/17 06:11:25;;;;;;;6.10;3.62;;;;;;;22.44;64.72;99772.40;1658269;85;20163;-72
2021/06/17 06:13:53;;;;;;;7.20;4.35;;;;;;;22.41;65.20;99773.20;1728650;82;20992;-74
2021/06/17 06:16:22;;;;;;;7.25;3.45;;;;;;;22.41;65.23;99768.98;1735008;81;21230;-72
2021/06/17 06:18:49;;;;;;;14.85;3.90;;;;;;;22.43;65.15;99762.38;1692807;83;21080;-73
2021/06/17 06:21:18;;;;;;;16.75;4.53;;;;;;;22.52;65.35;99763.39;1693227;84;21111;-73
2021/06/17 06:23:47;;;;;;;8.30;3.58;;;;;;;22.63;65.27;99771.88;1691472;84;21032;-72
2021/06/17 06:26:17;;;;;;;12.20;4.53;;;;;;;22.66;64.90;99773.08;1705744;81;21105;-72
2021/06/17 06:28:50;;;;;;;12.43;4.28;;;;;;;22.66;64.40;99770.27;1728111;82;21814;-76
2021/06/17 06:31:18;;;;;;;8.58;4.10;;;;;;;22.64;65.18;99779.71;1727142;82;20980;-73
2021/06/17 06:33:52;;;;;;;6.58;3.25;;;;;;;22.70;65.64;99769.69;1718454;82;21040;-72
2021/06/17 06:36:21;;;;;;;9.63;3.85;;;;;;;22.78;65.14;99768.50;1680902;85;21060;-74
2021/06/17 06:39:01;;;;;;;7.50;3.25;;;;;;;22.89;64.90;99773.33;1720546;82;21007;-74
2021/06/17 06:41:35;;;;;;;9.65;3.62;;;;;;;22.97;64.75;99770.73;1696285;83;21768;-73
2021/06/17 06:44:03;;;;;;;;;;;;;;;23.07;64.38;99774.75;1699515;83;21052;-73
2021/06/17 06:46:30;;;;;;;8.13;4.15;;;;;;;23.18;63.93;99771.95;1699940;83;20196;-73
2021/06/17 06:49:03;;;;;;;9.75;3.90;;;;;;;23.24;63.49;99770.34;1700792;83;21024;-72
2021/06/17 06:51:39;;;;;;;4.55;3.15;;;;;;;23.29;63.55;99773.34;1719317;82;21497;-75
2021/06/17 06:54:09;;;;;;;9.78;3.65;;;;;;;23.32;63.11;99771.16;1700149;82;21151;-73
2021/06/17 06:56:37;;;;;;;8.63;3.58;;;;;;;23.35;63.01;99766.92;1725330;82;21503;-73
2021/06/17 06:59:04;;;;;;;14.25;3.40;;;;;;;23.41;62.99;99779.19;1694220;83;21560;-73
2021/06/17 07:01:30;;;;;;;8.28;4.05;;;;;;;23.45;62.15;99772.98;1700248;83;21020;-72
2021/06/17 07:03:57;;;;;;;6.15;3.27;;;;;;;23.49;62.16;99773.77;1700500;83;21043;-74
2021/06/17 07:06:32;;;;;;;10.53;3.72;;;;;;;23.57;62.70;99778.20;1695010;83;21584;-72
2021/06/17 07:08:58;;;;;;;;;;;;;;;23.62;62.04;99779.79;1705737;82;21018;-72
2021/06/17 07:11:25;;;;;;;9.25;3.65;;;;;;;23.63;61.99;99774.35;1718809;82;20180;-71
2021/06/17 07:13:51;;;;;;;25.20;5.25;;;;;;;23.68;61.67;99774.54;1725448;82;21019;-73
2021/06/17 07:16:24;;;;;;;17.77;3.95;;;;;;;23.71;61.53;99772.34;1726733;82;21508;-72
2021/06/17 07:18:55;;;;;;;9.05;3.40;;;;;;;23.77;61.84;99780.56;1723027;82;21031;-71
2021/06/17 07:21:23;;;;;;;5.15;2.98;;;;;;;23.87;61.68;99783.14;1724340;82;21060;-73
2021/06/17 07:23:53;;;;;;;6.97;3.30;;;;;;;23.96;60.21;99779.91;1725903;82;20979;-74
2021/06/17 07:26:22;;;;;;;8.35;3.45;;;;;;;23.94;60.71;99779.51;1700928;82;21015;-75
2021/06/17 07:28:48;;;;;;;9.53;3.22;;;;;;;23.92;60.09;99784.73;1725037;82;21039;-71
2021/06/17 07:31:15;;;;;;;5.75;3.58;;;;;;;23.93;60.59;99784.95;1724686;82;21152;-71
2021/06/17 07:33:43;;;;;;;9.65;4.28;;;;;;;24.02;60.83;99787.34;1727097;82;21048;-77
2021/06/17 07:36:18;;;;;;;9.13;3.10;;;;;;;24.15;60.93;99784.88;1720994;82;21058;-73
2021/06/17 07:38:45;;;;;;;17.35;4.62;;;;;;;24.27;60.98;99792.91;1720666;82;21095;-71
2021/06/17 07:41:11;;;;;;;12.90;3.75;;;;;;;24.35;59.65;99795.08;1725654;82;21011;-74
2021/06/17 07:43:39;;;;;;;9.50;3.42;;;;;;;24.40;60.02;99786.80;1726143;82;21683;-76
2021/06/17 07:46:06;;;;;;;39.45;4.72;;;;;;;24.49;59.67;99789.99;1720435;82;21028;-76
2021/06/17 07:48:33;;;;;;;12.82;3.22;;;;;;;24.49;59.09;99794.22;1725460;82;20987;-73
2021/06/17 07:51:03;;;;;;;8.93;3.67;;;;;;;24.50;59.61;99789.37;1728198;82;22462;-76
2021/06/17 07:53:32;;;;;;;13.30;3.40;;;;;;;24.54;59.24;99791.57;1722882;82;20993;-75
2021/06/17 07:55:58;;;;;;;6.58;3.00;;;;;;;24.58;58.49;99797.19;1724680;82;21172;-71
2021/06/17 07:58:25;;;;;;;22.52;4.30;;;;;;;24.54;58.58;99803.64;1694444;83;21036;-72
2021/06/17 08:00:52;;;;;;;12.13;4.55;;;;;;;24.53;58.89;99804.06;1723251;82;21047;-78
2021/06/17 08:03:20;;;;;;;15.03;4.33;;;;;;;24.59;58.89;99808.64;1724157;82;21052;-79
2021/06/17 08:05:46;;;;;;;23.38;4.05;;;;;;;24.62;58.82;99817.07;1720777;82;21056;-72
2021/06/17 08:08:12;;;;;;;18.15;3.95;;;;;;;24.69;58.57;99809.19;1725605;82;21512;-71
2021/06/17 08:10:40;;;;;;;16.37;4.37;;;;;;;24.71;58.62;99809.59;1700718;83;21069;-73
2021/06/17 08:13:06;;;;;;;10.82;3.75;;;;;;;24.77;58.82;99808.56;1718031;82;21040;-72
2021/06/17 08:15:34;;;;;;;15.90;3.77;;;;;;;24.88;59.12;99814.11;1723179;82;20971;-73
2021/06/17 08:18:05;;;;;;;5.28;3.42;;;;;;;24.96;58.40;99812.09;1724384;82;21489;-77
2021/06/17 08:20:35;;;;;;;10.20;3.30;;;;;;;25.00;57.82;99814.27;1679974;85;21069;-71
2021/06/17 08:23:02;;;;;;;9.43;3.40;;;;;;;25.05;58.29;99811.02;1721876;82;21152;-75
2021/06/17 08:25:32;;;;;;;13.53;3.70;;;;;;;25.10;58.51;99813.99;1726266;82;21492;-72
2021/06/17 08:28:04;;;;;;;3.85;3.00;;;;;;;25.15;58.05;99805.09;1700476;83;21060;-78
2021/06/17 08:30:36;;;;;;;10.18;3.37;;;;;;;25.23;57.27;99810.87;1699614;83;21118;-74
2021/06/17 08:33:04;;;;;;;17.20;4.03;;;;;;;25.26;58.22;99807.84;1726593;82;21098;-74
2021/06/17 08:43:15;;;;;;;10.72;3.72;;;;;;;25.56;57.02;99812.02;1615905;88;21096;-73
2021/06/17 08:45:41;;;;;;;19.17;4.05;;;;;;;25.60;56.97;99812.80;1619691;86;21095;-76
2021/06/17 08:48:08;;;;;;;16.62;4.03;;;;;;;25.65;56.90;99808.75;1620842;88;21190;-71
2021/06/17 08:50:34;;;;;;;22.40;4.20;;;;;;;25.71;57.02;99806.28;1717867;82;21005;-72
2021/06/17 08:53:09;;;;;;;10.32;3.60;;;;;;;25.78;56.35;99805.41;1727211;82;21526;-76
2021/06/17 08:55:39;;;;;;;;;;;;;;;25.80;56.58;99815.64;1730269;82;21028;-73
2021/06/17 08:58:10;;;;;;;12.90;3.27;;;;;;;25.81;56.52;99808.80;1727739;81;20306;-73
2021/06/17 09:00:40;;;;;;;;;;;;;;;25.81;56.06;99815.22;1730780;82;21142;-77
2021/06/17 09:03:16;;;;;;;7.08;3.42;;;;;;;25.80;56.26;99810.81;1700811;82;20457;-77
2021/06/17 09:05:46;;;;;;;14.90;3.95;;;;;;;25.78;55.93;99819.52;1727598;82;21154;-74
2021/06/17 09:08:15;;;;;;;8.03;3.25;;;;;;;25.75;56.00;99819.73;1726997;82;21041;-71
2021/06/17 09:10:42;;;;;;;8.03;3.00;;;;;;;25.76;55.94;99819.94;1730430;82;20997;-74
2021/06/17 09:13:10;;;;;;;7.50;3.22;;;;;;;25.81;55.99;99820.09;1724344;82;21777;-71
2021/06/17 09:15:41;;;;;;;23.40;3.70;;;;;;;25.84;55.96;99816.42;1728361;82;21065;-75
2021/06/17 09:18:16;;;;;;;12.85;3.50;;;;;;;25.94;56.22;99814.70;1724980;82;21057;-73
2021/06/17 09:20:48;;;;;;;14.38;3.60;;;;;;;26.12;54.83;99808.25;1727569;82;21008;-77
2021/06/17 09:23:28;;;;;;;11.97;3.52;;;;;;;26.35;55.04;99817.30;1729358;82;20998;-75
2021/06/17 09:26:20;;;;;;;11.48;3.02;;;;;;;26.54;54.34;99817.27;1726092;82;21064;-75
2021/06/17 09:29:00;;;;;;;14.58;2.92;;;;;;;26.74;54.18;99823.05;1730332;82;21066;-75
2021/06/17 09:31:41;;;;;;;11.97;3.30;;;;;;;26.94;52.79;99828.61;1730348;82;21056;-72
2021/06/17 09:34:10;;;;;;;3.10;2.50;;;;;;;26.95;51.72;99825.37;1708929;83;21008;-74
2021/06/17 09:36:40;;;;;;;11.18;2.80;;;;;;;26.95;51.78;99828.20;1713443;82;21046;-72
2021/06/17 09:39:17;;;;;;;9.78;3.00;;;;;;;27.03;51.98;99827.50;1692947;82;21052;-76
2021/06/17 09:41:42;;;;;;;14.65;3.30;;;;;;;27.13;51.28;99828.56;1711045;82;21658;-71
2021/06/17 09:44:38;;;;;;;9.60;3.33;;;;;;;27.22;51.31;99822.37;1707720;83;20952;-75
2021/06/17 09:47:25;;;;;;;17.82;3.15;;;;;;;27.26;50.38;99821.68;1714568;83;21055;-74
2021/06/17 09:49:52;;;;;;;31.97;5.30;;;;;;;27.30;50.87;99823.05;1689040;84;21474;-73
2021/06/17 09:52:22;;;;;;;14.23;3.40;;;;;;;27.37;50.78;99820.70;1692197;83;21561;-74
2021/06/17 09:54:50;;;;;;;8.40;2.87;;;;;;;27.37;50.09;99815.05;1688133;84;21439;-74
2021/06/17 09:57:23;;;;;;;10.93;2.67;;;;;;;27.35;49.95;99822.55;1678066;83;21605;-79
2021/06/17 10:03:30;;;;;;;6.25;2.77;;;;;;;27.24;49.04;99819.11;1693650;84;21036;-78
2021/06/17 10:05:58;;;;;;;6.72;2.77;;;;;;;26.96;49.86;99817.68;1693269;84;21522;-80
2021/06/17 10:08:26;;;;;;;10.68;3.00;;;;;;;27.02;51.21;99810.94;1691527;83;20994;-72
2021/06/17 10:10:53;;;;;;;22.93;3.65;;;;;;;27.17;51.25;99818.01;1693204;83;21067;-76
2021/06/17 10:13:26;;;;;;;9.23;2.55;;;;;;;27.27;50.74;99814.81;1693178;84;21025;-74
2021/06/17 10:15:53;;;;;;;19.27;4.08;;;;;;;27.30;50.08;99811.73;1716997;82;21065;-71
2021/06/17 10:18:20;;;;;;;8.08;3.58;;;;;;;27.37;49.99;99810.81;1712831;83;21904;-75
2021/06/17 10:20:49;;;;;;;8.85;3.20;;;;;;;27.45;50.34;99816.53;1694022;84;21024;-73
2021/06/17 10:23:18;;;;;;;16.45;3.40;;;;;;;27.55;50.55;99813.35;1692230;84;22257;-76
2021/06/17 10:25:48;;;;;;;6.47;2.72;;;;;;;27.56;49.56;99818.58;1678475;83;21530;-76
2021/06/17 10:28:41;;;;;;;12.73;4.10;;;;;;;27.55;48.92;99814.77;1720351;82;21011;-74
2021/06/17 10:31:08;;;;;;;8.95;2.50;;;;;;;27.52;49.28;99806.52;1722159;82;21495;-78
2021/06/17 10:33:37;;;;;;;5.62;2.62;;;;;;;27.59;49.43;99799.92;1725652;82;21008;-72
2021/06/17 10:36:23;;;;;;;4.83;2.75;;;;;;;27.74;49.38;99803.95;1728795;82;21000;-71
2021/06/17 10:39:15;;;;;;;8.10;2.85;;;;;;;27.90;49.62;99804.05;1725333;80;20989;-72
2021/06/17 10:41:57;;;;;;;13.05;3.08;;;;;;;28.12;49.83;99803.62;1729970;82;21020;-74
2021/06/17 10:44:56;;;;;;;10.43;2.87;;;;;;;28.37;49.46;99804.38;1718461;82;21057;-73
2021/06/17 10:47:51;;;;;;;8.90;3.08;;;;;;;28.47;48.28;99802.55;1729637;82;21092;-76
2021/06/17 10:50:39;;;;;;;8.85;2.30;;;;;;;28.38;47.66;99810.21;1730593;82;21077;-73
2021/06/17 10:53:44;;;;;;;6.87;2.67;;;;;;;28.26;47.72;99805.37;1719712;82;21020;-76
2021/06/17 10:56:26;;;;;;;14.85;3.58;;;;;;;28.16;47.78;99795.87;1731634;82;21509;-72
2021/06/17 10:58:56;;;;;;;5.83;2.52;;;;;;;28.12;48.32;99787.23;1726015;82;21159;-83
2021/06/17 11:06:09;;;;;;;21.50;3.37;;;;;;;28.07;47.75;99778.64;1655902;86;21071;-75
2021/06/17 11:08:36;;;;;;;7.62;3.87;;;;;;;27.82;47.92;99775.70;1653390;86;21103;-71
2021/06/17 11:11:08;;;;;;;37.00;4.10;;;;;;;27.61;47.93;99779.08;1711460;81;21079;-79
2021/06/17 11:13:37;;;;;;;28.52;3.77;;;;;;;27.59;48.69;99772.45;1731151;81;21536;-79
2021/06/17 11:16:13;;;;;;;22.73;3.90;;;;;;;27.67;49.00;99768.86;1731872;82;21028;-76
2021/06/17 11:18:52;;;;;;;8.08;2.77;;;;;;;27.79;48.46;99759.59;1729213;82;21040;-80
2021/06/17 11:21:32;;;;;;;13.72;3.90;;;;;;;27.83;48.69;99760.31;1727846;82;21044;-72
2021/06/17 11:24:18;;;;;;;5.00;2.40;;;;;;;27.87;47.91;99766.71;1728765;82;21028;-71
2021/06/17 11:26:51;;;;;;;17.40;3.67;;;;;;;27.67;47.09;99767.44;1729778;82;21098;-77
2021/06/17 11:29:24;;;;;;;7.42;2.60;;;;;;;27.50;47.70;99755.86;1728117;82;21470;-80
2021/06/17 11:31:54;;;;;;;10.20;3.40;;;;;;;27.53;49.35;99754.98;1721760;82;21095;-73
2021/06/17 11:34:41;;;;;;;16.52;3.62;;;;;;;27.72;49.47;99739.31;1722370;82;21099;-72
2021/06/17 11:37:15;;;;;;;7.87;2.60;;;;;;;27.84;47.76;99750.60;1724134;82;21074;-74
2021/06/17 11:39:41;;;;;;;12.37;3.47;;;;;;;27.99;49.07;99749.70;1723933;82;21126;-70
2021/06/17 11:42:17;;;;;;;11.48;3.27;;;;;;;28.13;48.18;99761.32;1724563;82;21017;-72
2021/06/17 11:45:02;;;;;;;24.05;2.80;;;;;;;28.16;47.13;99756.22;1724705;82;21107;-73
2021/06/17 11:47:28;;;;;;;12.13;2.77;;;;;;;28.25;47.65;99749.17;1722989;82;21016;-73
2021/06/17 11:50:06;;;;;;;10.55;2.87;;;;;;;28.39;47.28;99747.45;1725799;82;37281;-72
2021/06/17 11:52:40;;;;;;;8.58;2.70;;;;;;;28.49;46.49;99742.78;1701849;82;21164;-71
2021/06/17 11:55:09;;;;;;;31.00;4.58;;;;;;;28.53;46.81;99748.38;1724597;82;20996;-71
2021/06/17 11:57:39;;;;;;;17.48;3.08;;;;;;;28.49;46.13;99751.28;1725838;82;21007;-71
2021/06/17 12:00:11;;;;;;;125.40;13.32;;;;;;;28.42;47.17;99742.97;1706328;82;21067;-72
2021/06/17 12:02:39;;;;;;;9.78;2.90;;;;;;;28.35;46.85;99749.59;1725711;82;21052;-72
2021/06/17 12:05:18;;;;;;;16.50;3.45;;;;;;;28.31;46.76;99755.91;1717554;82;21016;-72
2021/06/17 12:07:52;;;;;;;13.20;3.45;;;;;;;28.17;46.02;99766.30;1693749;82;21025;-71
2021/06/17 12:10:28;;;;;;;12.93;2.95;;;;;;;28.02;46.55;99759.34;1722975;82;21588;-75
2021/06/17 12:12:59;;;;;;;9.15;2.50;;;;;;;27.85;46.76;99753.60;1721967;82;21459;-73
2021/06/17 12:15:36;;;;;;;10.60;3.40;;;;;;;27.77;47.40;99759.23;1724523;82;21142;-72
2021/06/17 12:18:10;;;;;;;10.43;3.30;;;;;;;27.75;47.61;99768.76;1724436;82;21084;-74
2021/06/17 12:20:46;;;;;;;8.30;2.40;;;;;;;27.69;48.05;99757.13;1697022;83;21644;-71
2021/06/17 12:23:42;;;;;;;7.65;2.40;;;;;;;27.64;48.08;99773.16;1708733;82;20952;-75
2021/06/17 12:29:47;;;;;;;12.93;2.90;;;;;;;27.44;48.03;99773.93;1713076;83;21532;-71
2021/06/17 12:32:16;;;;;;;4.90;2.37;;;;;;;27.45;48.41;99773.50;1705093;83;21118;-71
2021/06/17 12:34:44;;;;;;;3.98;2.55;;;;;;;27.53;47.98;99768.53;1697645;83;21027;-72
2021/06/17 12:37:12;;;;;;;15.78;3.15;;;;;;;27.69;48.41;99763.59;1714295;83;21022;-74
2021/06/17 12:39:41;;;;;;;18.20;3.67;;;;;;;27.93;47.93;99763.55;1698314;83;21012;-75
2021/06/17 12:42:14;;;;;;;12.75;1.92;;;;;;;28.10;47.47;99757.95;1713168;83;21009;-71
2021/06/17 12:52:21;;;;;;;3.45;2.10;;;;;;;28.20;46.61;99771.70;1654946;86;21091;-77
2021/06/17 12:54:53;;;;;;;7.80;2.50;;;;;;;28.37;46.37;99759.06;1629062;86;21090;-80